Aviation Digital Data Service (ADDS)

Output produced by METARs form (1541 UTC 22 August 2014)
found at http://aviationweather.gov/adds/metars/
 
KLCH 221453Z 29004KT 10SM SCT021 31/25 A3010 RMK AO2 SLP202 T03060250 53007